Photometre #857[NE_1.6_Dp] Cork_UCC AOT

File : 20220928_857.hum

28/09/2022,07:27:15,TEMP=16.8,BA=5.48,STAT.h
28/09/2022,07:27:21,TEMP=16.8,BA=5.48,STAT.h
28/09/2022,07:31:30,TEMP=16.8,BA=5.56,STAT.h
28/09/2022,07:31:36,TEMP=16.8,BA=5.56,STAT.h
28/09/2022,07:36:29,TEMP=16.8,BA=5.56,STAT.h
28/09/2022,07:42:26,TEMP=16.8,BA=5.52,STAT.h
28/09/2022,07:42:27,TEMP=16.8,BA=5.52,STAT.h
28/09/2022,07:49:38,TEMP=16.8,BA=5.52,STAT.h
28/09/2022,07:49:39,TEMP=16.8,BA=5.52,STAT.h
28/09/2022,07:58:33,TEMP=16.8,BA=5.56,STAT.h
28/09/2022,07:58:34,TEMP=16.8,BA=5.56,STAT.h
28/09/2022,08:09:56,TEMP=16.8,BA=5.56,STAT.h
28/09/2022,08:15:25,TEMP=16.8,BA=5.56,STAT.h
28/09/2022,08:15:31,TEMP=16.8,BA=5.56,STAT.h
28/09/2022,08:21:35,TEMP=16.8,BA=5.56,STAT.h
28/09/2022,08:21:42,TEMP=16.8,BA=5.56,STAT.h
28/09/2022,08:28:36,TEMP=16.8,BA=5.56,STAT.h
28/09/2022,08:28:37,TEMP=16.8,BA=5.56,STAT.h
28/09/2022,08:36:38,TEMP=16.8,BA=5.56,STAT.h
28/09/2022,08:36:39,TEMP=16.8,BA=5.56,STAT.h
28/09/2022,08:45:59,TEMP=16.8,BA=5.56,STAT.h
28/09/2022,08:57:00,TEMP=16.8,BA=5.56,STAT.h
28/09/2022,08:57:06,TEMP=16.8,BA=5.56,STAT.h
28/09/2022,09:10:16,TEMP=16.8,BA=5.60,STAT.h
28/09/2022,09:10:17,TEMP=16.8,BA=5.60,STAT.h
28/09/2022,09:25:19,TEMP=13.6,BA=5.60,STAT.F,ExtBa=13.20
28/09/2022,09:50:34,TEMP=15.5,BA=5.48,STAT.D,ExtBa=12.70
28/09/2022,09:55:18,TEMP=15.6,BA=5.48,STAT.D,ExtBa=13.00
28/09/2022,10:10:18,TEMP=16.1,BA=5.56,STAT.D,ExtBa=13.00
28/09/2022,10:25:20,TEMP=16.0,BA=5.60,STAT.F,ExtBa=13.50
28/09/2022,10:40:18,TEMP=16.2,BA=5.60,STAT.D,ExtBa=13.40
28/09/2022,10:55:18,TEMP=16.8,BA=5.56,STAT.D,ExtBa=13.20
28/09/2022,11:10:18,TEMP=16.6,BA=5.56,STAT.D,ExtBa=13.30
28/09/2022,11:25:20,TEMP=16.1,BA=5.56,STAT.F,ExtBa=13.80
28/09/2022,11:49:21,TEMP=18.8,BA=5.48,STAT.D,ExtBa=13.30
28/09/2022,11:55:18,TEMP=18.3,BA=5.48,STAT.D,ExtBa=13.60
28/09/2022,12:10:18,TEMP=17.2,BA=5.56,STAT.D,ExtBa=13.50
28/09/2022,12:25:20,TEMP=16.5,BA=5.56,STAT.F,ExtBa=13.30
28/09/2022,12:49:02,TEMP=18.1,BA=5.48,STAT.D,ExtBa=13.60
28/09/2022,12:55:18,TEMP=17.8,BA=5.48,STAT.D,ExtBa=13.80
28/09/2022,13:10:18,TEMP=18.4,BA=5.56,STAT.D,ExtBa=13.90
28/09/2022,13:25:20,TEMP=18.7,BA=5.56,STAT.F,ExtBa=13.40
28/09/2022,13:50:31,TEMP=19.2,BA=5.44,STAT.D,ExtBa=13.00
28/09/2022,13:55:18,TEMP=17.7,BA=5.44,STAT.D,ExtBa=13.00
28/09/2022,14:10:18,TEMP=16.3,BA=5.56,STAT.D,ExtBa=13.60
28/09/2022,14:25:20,TEMP=16.6,BA=5.56,STAT.F,ExtBa=13.20
28/09/2022,14:40:18,TEMP=16.6,BA=5.56,STAT.D,ExtBa=13.90
28/09/2022,14:55:18,TEMP=17.6,BA=5.56,STAT.D,ExtBa=13.60
28/09/2022,15:10:18,TEMP=18.3,BA=5.56,STAT.D,ExtBa=13.40
28/09/2022,15:25:19,TEMP=17.8,BA=5.56,STAT.F,ExtBa=13.50
28/09/2022,15:49:43,TEMP=19.2,BA=5.44,STAT.A,ExtBa=13.00
28/09/2022,15:57:55,TEMP=17.9,BA=5.44,STAT.A,ExtBa=13.00
28/09/2022,16:04:15,TEMP=17.4,BA=5.48,STAT.C,ExtBa=12.90
28/09/2022,16:13:36,TEMP=16.8,BA=5.48,STAT.A,ExtBa=13.00
28/09/2022,16:21:38,TEMP=16.5,BA=5.52,STAT.A,ExtBa=13.00
28/09/2022,16:28:39,TEMP=16.3,BA=5.52,STAT.A,ExtBa=13.20
28/09/2022,16:34:49,TEMP=16.4,BA=5.44,STAT.A,ExtBa=13.20
28/09/2022,16:40:18,TEMP=16.5,BA=5.52,STAT.B,ExtBa=13.20
28/09/2022,16:51:41,TEMP=16.6,BA=5.48,STAT.A,ExtBa=12.80
28/09/2022,17:00:35,TEMP=16.0,BA=5.52,STAT.A,ExtBa=12.90
28/09/2022,17:07:47,TEMP=15.7,BA=5.52,STAT.A,ExtBa=13.00
28/09/2022,17:13:44,TEMP=14.5,BA=5.48,STAT.A,ExtBa=12.90
28/09/2022,17:18:43,TEMP=13.8,BA=5.48,STAT.A,ExtBa=12.90
28/09/2022,17:22:58,TEMP=13.5,BA=5.40,STAT.A,ExtBa=12.90